Time;durP1;ratioP1;P1;durP2;ratioP2;P2;SDS_P1;SDS_P2;PMS_P1;PMS_P2;Temp;Humidity;BMP_temperature;BMP_pressure;BME280_temperature;BME280_humidity;BME280_pressure;Samples;Min_cycle;Max_cycle;Signal;HPM_P1;HPM_P2
2022/12/12 00:00:14;;;;;;;;;;;;;;;25.58;40.23;93276.69;4920952;28;9105;-60
2022/12/12 00:02:41;;;;;;;;;;;;;;;25.59;40.29;93277.44;4929032;28;7066;-60
2022/12/12 00:05:08;;;;;;;;;;;;;;;25.59;39.80;93274.69;4932811;29;9482;-60
2022/12/12 00:07:35;;;;;;;;;;;;;;;25.57;40.10;93277.97;4916648;29;7308;-60
2022/12/12 00:10:04;;;;;;;;;;;;;;;25.58;39.96;93271.19;4942433;28;7204;-60
2022/12/12 00:12:39;;;;;;;;;;;;;;;25.59;40.21;93280.19;4920636;29;8224;-61
2022/12/12 00:15:05;;;;;;;;;;;;;;;25.58;40.37;93273.94;4972037;28;7366;-60
2022/12/12 00:17:38;;;;;;;;;;;;;;;25.57;40.38;93280.72;4985158;28;7118;-60
2022/12/12 00:20:05;;;;;;;;;;;;;;;25.55;40.47;93277.78;4981651;28;8011;-61
2022/12/12 00:22:32;;;;;;;;;;;;;;;25.53;39.99;93280.34;4980610;28;7464;-60
2022/12/12 00:24:58;;;;;;;;;;;;;;;25.55;39.91;93279.78;4964443;28;9076;-60
2022/12/12 00:27:28;;;;;;;;;;;;;;;25.57;40.07;93277.97;4977043;28;9095;-60
2022/12/12 00:30:01;;;;;;;;;;;;;;;25.54;40.47;93286.56;4984999;28;7032;-60
2022/12/12 00:32:27;;;;;;;;;;;;;;;25.56;39.90;93293.00;4964222;28;8241;-61
2022/12/12 00:35:00;;;;;;;;;;;;;;;25.56;39.69;93298.50;4965077;28;7061;-60
2022/12/12 00:37:30;;;;;;;;;;;;;;;25.55;40.39;93291.53;4969435;28;7313;-60
2022/12/12 00:39:56;;;;;;;;;;;;;;;25.56;40.10;93293.00;4989044;28;8977;-61
2022/12/12 00:42:26;;;;;;;;;;;;;;;25.56;39.83;93290.25;4983947;28;9076;-60
2022/12/12 00:44:52;;;;;;;;;;;;;;;25.57;40.17;93300.00;4957920;28;10138;-60
2022/12/12 00:47:29;;;;;;;;;;;;;;;25.56;40.31;93293.00;4968327;28;7144;-62
2022/12/12 00:49:57;;;;;;;;;;;;;;;25.56;39.93;93295.75;4985251;28;8852;-60
2022/12/12 00:52:23;;;;;;;;;;;;;;;25.55;39.31;93294.28;4970705;28;7541;-60
2022/12/12 00:54:51;;;;;;;;;;;;;;;25.56;40.05;93295.75;4979474;28;9824;-60
2022/12/12 00:57:19;;;;;;;;;;;;;;;25.56;39.84;93295.00;4973116;28;9361;-60
2022/12/12 00:59:45;;;;;;;;;;;;;;;25.50;39.83;93299.91;4979172;28;9000;-60
2022/12/12 01:02:11;;;;;;;;;;;;;;;25.38;39.94;93294.63;4974048;28;7801;-61
2022/12/12 01:04:39;;;;;;;;;;;;;;;25.40;40.41;93302.38;4963722;28;7010;-60
2022/12/12 01:07:07;;;;;;;;;;;;;;;25.39;39.97;93300.88;4966782;28;7905;-60
2022/12/12 01:09:33;;;;;;;;;;;;;;;25.38;40.52;93305.66;4961148;28;7569;-60
2022/12/12 01:12:00;;;;;;;;;;;;;;;25.39;39.87;93306.41;4965565;28;9125;-60
2022/12/12 01:14:28;;;;;;;;;;;;;;;25.38;40.43;93304.94;4982762;28;9358;-60
2022/12/12 01:17:24;;;;;;;;;;;;;;;25.38;40.58;93308.41;4969979;28;7283;-60
2022/12/12 01:20:01;;;;;;;;;;;;;;;25.37;40.06;93306.19;4970602;28;9373;-60
2022/12/12 01:22:36;;;;;;;;;;;;;;;25.38;40.54;93318.69;4971075;28;7430;-61
2022/12/12 01:25:02;;;;;;;;;;;;;;;25.42;40.25;93314.34;4959141;28;7151;-60
2022/12/12 01:27:28;;;;;;;;;;;;;;;25.44;39.54;93319.31;4975799;28;7349;-60
2022/12/12 01:30:25;;;;;;;;;;;;;;;25.49;39.67;93317.72;4989436;28;7160;-60
2022/12/12 01:32:51;;;;;;;;;;;;;;;25.50;40.08;93317.19;4910778;29;7251;-60
2022/12/12 01:35:25;;;;;;;;;;;;;;;25.50;39.32;93317.19;4911966;29;8580;-60
2022/12/12 01:37:51;;;;;;;;;;;;;;;25.50;39.43;93316.44;4901800;29;7197;-61
2022/12/12 01:40:22;;;;;;;;;;;;;;;25.52;39.93;93319.38;4914946;29;7096;-61
2022/12/12 01:42:50;;;;;;;;;;;;;;;25.51;40.03;93321.44;4898302;29;7033;-60
2022/12/12 01:46:02;;;;;;;;;;;;;;;25.52;39.58;93331.16;4905158;29;7205;-60
2022/12/12 01:48:44;;;;;;;;;;;;;;;25.51;39.53;93332.44;4912930;29;7177;-60
2022/12/12 01:51:18;;;;;;;;;;;;;;;25.52;39.65;93330.41;4892903;29;7819;-60
2022/12/12 01:53:46;;;;;;;;;;;;;;;25.51;39.53;93323.44;4908171;29;9018;-60
2022/12/12 01:56:23;;;;;;;;;;;;;;;25.43;40.55;93326.09;4902694;29;7692;-60
2022/12/12 01:58:55;;;;;;;;;;;;;;;25.40;40.04;93329.91;4866242;29;7293;-60
2022/12/12 02:01:29;;;;;;;;;;;;;;;25.37;39.80;93319.97;4882613;29;7070;-60
2022/12/12 02:03:59;;;;;;;;;;;;;;;25.38;39.93;93324.19;4895037;29;7482;-61
2022/12/12 02:06:28;;;;;;;;;;;;;;;25.43;39.79;93329.59;4870536;29;7601;-61
2022/12/12 02:09:03;;;;;;;;;;;;;;;25.38;39.89;93327.66;4924078;28;7255;-60
2022/12/12 02:11:44;;;;;;;;;;;;;;;25.38;39.66;93321.44;4987437;28;7280;-60
2022/12/12 02:14:18;;;;;;;;;;;;;;;25.36;40.29;93326.72;4969948;28;9279;-60
2022/12/12 02:16:46;;;;;;;;;;;;;;;25.35;40.36;93325.25;4977911;28;7783;-60
2022/12/12 02:19:50;;;;;;;;;;;;;;;25.37;40.39;93330.97;4975383;28;7087;-60
2022/12/12 02:22:53;;;;;;;;;;;;;;;25.39;40.01;93334.66;4953034;28;8561;-60
2022/12/12 02:25:36;;;;;;;;;;;;;;;25.39;39.49;93331.16;4945714;28;9055;-60
2022/12/12 02:31:24;;;;;;;;;;;;;;;25.41;39.79;93332.13;4952705;28;7251;-61
2022/12/12 02:34:06;;;;;;;;;;;;;;;25.44;40.05;93327.59;4930599;28;7097;-61
2022/12/12 02:37:15;;;;;;;;;;;;;;;25.44;39.91;93327.59;4945123;28;7739;-61
2022/12/12 02:40:15;;;;;;;;;;;;;;;25.45;40.37;93328.34;4952053;28;7177;-61
2022/12/12 02:43:06;;;;;;;;;;;;;;;25.45;40.15;93323.53;4950800;28;8884;-61
2022/12/12 02:45:46;;;;;;;;;;;;;;;25.41;40.08;93332.13;4953172;28;9319;-61
2022/12/12 02:48:31;;;;;;;;;;;;;;;25.36;39.85;93332.97;4948900;28;7066;-61
2022/12/12 02:51:29;;;;;;;;;;;;;;;25.35;40.58;93334.25;4936584;28;7365;-61
2022/12/12 02:54:12;;;;;;;;;;;;;;;25.34;40.13;93326.53;4933933;29;7044;-61
2022/12/12 02:56:58;;;;;;;;;;;;;;;25.34;40.04;93332.78;4921144;29;7289;-61
2022/12/12 02:59:48;;;;;;;;;;;;;;;25.35;39.56;93339.03;4944779;28;7477;-61
2022/12/12 03:02:42;;;;;;;;;;;;;;;25.36;40.14;93332.22;4949848;28;7171;-61
2022/12/12 03:08:31;;;;;;;;;;;;;;;25.35;39.53;93336.25;4960012;28;9075;-61
2022/12/12 03:11:36;;;;;;;;;;;;;;;25.33;39.96;93336.06;4943365;28;9406;-61
2022/12/12 03:14:49;;;;;;;;;;;;;;;25.37;40.30;93337.22;4962888;28;9011;-61
2022/12/12 03:17:42;;;;;;;;;;;;;;;25.37;40.38;93333.72;4963073;28;7718;-59
2022/12/12 03:20:26;;;;;;;;;;;;;;;25.35;40.11;93333.50;4955162;28;7223;-59
2022/12/12 03:23:07;;;;;;;;;;;;;;;25.34;39.79;93327.25;4952671;28;9025;-61
2022/12/12 03:25:52;;;;;;;;;;;;;;;25.35;39.55;93333.50;4954312;28;7008;-61
2022/12/12 03:28:33;;;;;;;;;;;;;;;25.35;40.08;93333.50;4963902;28;7177;-61
2022/12/12 03:31:06;;;;;;;;;;;;;;;25.34;40.17;93332.03;4960742;28;7296;-61
2022/12/12 03:34:11;;;;;;;;;;;;;;;25.35;39.81;93333.50;4978672;28;7258;-61
2022/12/12 03:37:08;;;;;;;;;;;;;;;25.35;40.27;93337.00;4969009;28;7270;-61
2022/12/12 03:40:02;;;;;;;;;;;;;;;25.33;39.40;93336.06;4973735;28;7150;-61
2022/12/12 03:42:42;;;;;;;;;;;;;;;25.32;39.53;93337.31;4974137;28;7893;-61
2022/12/12 03:45:30;;;;;;;;;;;;;;;25.34;40.01;93343.03;4972234;28;7559;-61
2022/12/12 03:48:17;;;;;;;;;;;;;;;25.34;39.73;93332.03;4980455;28;7770;-61
2022/12/12 03:50:59;;;;;;;;;;;;;;;25.34;39.75;93337.53;4977850;28;8740;-61
2022/12/12 03:53:58;;;;;;;;;;;;;;;25.30;40.35;93334.38;4972993;28;7021;-61
2022/12/12 03:56:33;;;;;;;;;;;;;;;25.29;40.39;93335.66;4981232;28;7442;-61
2022/12/12 03:59:09;;;;;;;;;;;;;;;25.29;39.93;93341.88;4971349;28;7053;-61
2022/12/12 04:01:45;;;;;;;;;;;;;;;25.29;39.78;93333.63;4970928;28;7279;-60
2022/12/12 04:04:34;;;;;;;;;;;;;;;25.29;40.03;93333.63;4979793;28;7816;-60
2022/12/12 04:07:22;;;;;;;;;;;;;;;25.31;39.44;93341.38;4981080;28;7022;-60
2022/12/12 04:12:58;;;;;;;;;;;;;;;25.29;39.94;93332.91;4980150;28;7230;-60
2022/12/12 04:16:07;;;;;;;;;;;;;;;25.28;39.75;93340.41;4964618;28;10740;-61
2022/12/12 04:18:57;;;;;;;;;;;;;;;25.28;39.95;93347.94;4956294;28;9219;-60
2022/12/12 04:25:06;;;;;;;;;;;;;;;25.27;39.69;93349.94;4971509;28;7024;-61
2022/12/12 04:28:03;;;;;;;;;;;;;;;25.27;39.61;93352.69;4972895;28;8691;-60
2022/12/12 04:30:36;;;;;;;;;;;;;;;25.27;40.19;93351.97;4947402;28;7057;-60
2022/12/12 04:33:29;;;;;;;;;;;;;;;25.28;39.88;93367.19;4945236;28;8203;-60
2022/12/12 04:36:01;;;;;;;;;;;;;;;25.28;39.40;93361.69;4938938;28;7051;-60
2022/12/12 04:38:28;;;;;;;;;;;;;;;25.28;39.61;93362.44;4953471;28;6879;-60
2022/12/12 04:40:59;;;;;;;;;;;;;;;25.27;39.62;93357.47;4968400;28;7211;-60
2022/12/12 04:43:39;;;;;;;;;;;;;;;25.28;40.00;93367.19;4960936;28;7265;-61
2022/12/12 04:46:21;;;;;;;;;;;;;;;25.27;40.17;93366.44;4961370;28;7353;-61
2022/12/12 04:49:06;;;;;;;;;;;;;;;25.28;40.04;93361.69;4945580;28;7054;-61
2022/12/12 04:51:48;;;;;;;;;;;;;;;25.28;39.93;93362.44;4955296;28;9529;-61
2022/12/12 04:54:59;;;;;;;;;;;;;;;25.27;39.63;93366.44;4948041;29;7551;-61
2022/12/12 04:57:46;;;;;;;;;;;;;;;25.28;39.74;93373.44;4887035;29;7189;-61
2022/12/12 05:00:29;;;;;;;;;;;;;;;25.26;39.78;93367.72;4884223;29;7185;-61
2022/12/12 05:03:10;;;;;;;;;;;;;;;25.27;40.26;93371.94;4878688;29;7040;-60
2022/12/12 05:06:11;;;;;;;;;;;;;;;25.25;40.38;93362.78;4902364;29;7295;-61
2022/12/12 05:08:42;;;;;;;;;;;;;;;25.27;39.79;93360.94;4891462;29;9531;-61
2022/12/12 05:11:24;;;;;;;;;;;;;;;25.26;39.58;93367.72;4865779;29;9102;-61
2022/12/12 05:13:58;;;;;;;;;;;;;;;25.24;40.02;93364.78;4897532;29;7265;-61
2022/12/12 05:16:31;;;;;;;;;;;;;;;25.25;39.76;93369.00;4885313;29;7349;-61
2022/12/12 05:19:09;;;;;;;;;;;;;;;25.26;40.02;93369.75;4888217;29;7651;-61
2022/12/12 05:21:35;;;;;;;;;;;;;;;25.25;40.10;93366.25;4878267;29;9007;-61
2022/12/12 05:24:01;;;;;;;;;;;;;;;25.26;39.41;93369.75;4889019;29;9334;-61
2022/12/12 05:26:31;;;;;;;;;;;;;;;25.25;39.81;93380.00;4881281;29;9709;-61
2022/12/12 05:28:58;;;;;;;;;;;;;;;25.26;40.11;93369.75;4880954;29;7104;-61
2022/12/12 05:31:35;;;;;;;;;;;;;;;25.24;40.07;93377.78;4891589;29;7016;-61
2022/12/12 05:34:03;;;;;;;;;;;;;;;25.26;43.38;93375.25;4921179;28;7264;-61
2022/12/12 05:36:41;;;;;;;;;;;;;;;25.27;40.57;93377.47;4981479;28;7269;-61
2022/12/12 05:39:11;;;;;;;;;;;;;;;25.30;40.30;93383.91;4973029;28;7349;-61
2022/12/12 05:41:52;;;;;;;;;;;;;;;25.31;39.96;93386.16;4979734;28;7017;-61
2022/12/12 05:44:19;;;;;;;;;;;;;;;25.31;39.98;93382.66;4970836;28;7073;-61
2022/12/12 05:46:45;;;;;;;;;;;;;;;25.31;40.13;93382.66;4976012;28;7236;-61
2022/12/12 05:49:12;;;;;;;;;;;;;;;25.37;39.57;93386.75;4987230;28;7031;-60
2022/12/12 05:51:42;;;;;;;;;;;;;;;25.34;39.89;93398.81;4960504;28;7824;-61
2022/12/12 05:54:10;;;;;;;;;;;;;;;25.29;40.32;93385.19;4971229;28;7030;-60
2022/12/12 05:56:36;;;;;;;;;;;;;;;25.30;40.73;93386.66;4974909;28;7037;-60
2022/12/12 05:59:03;;;;;;;;;;;;;;;25.34;41.04;93389.81;4979756;28;7979;-60
2022/12/12 06:01:34;;;;;;;;;;;;;;;25.31;41.24;93397.16;4988657;28;7283;-60
2022/12/12 06:04:00;;;;;;;;;;;;;;;25.31;40.43;93396.41;4967732;28;7120;-60
2022/12/12 06:06:28;;;;;;;;;;;;;;;25.31;40.49;93393.66;4971104;28;7034;-61
2022/12/12 06:08:54;;;;;;;;;;;;;;;25.33;42.06;93389.09;4972737;28;7672;-61
2022/12/12 06:11:26;;;;;;;;;;;;;;;25.38;41.14;93399.25;4988688;28;9373;-61
2022/12/12 06:13:55;;;;;;;;;;;;;;;25.40;41.73;93395.97;4972127;28;9485;-60
2022/12/12 06:16:25;;;;;;;;;;;;;;;25.42;41.18;93399.69;4987070;28;7238;-60
2022/12/12 06:18:54;;;;;;;;;;;;;;;25.43;40.96;93403.19;4970623;28;8708;-60
2022/12/12 06:21:47;;;;;;;;;;;;;;;25.38;40.34;93395.78;4984509;28;7044;-61
2022/12/12 06:24:15;;;;;;;;;;;;;;;25.36;41.16;93387.28;4928450;28;9018;-60
2022/12/12 06:26:47;;;;;;;;;;;;;;;25.34;40.70;93398.09;4951159;28;8894;-60
2022/12/12 06:29:13;;;;;;;;;;;;;;;25.33;40.88;93396.63;4931327;28;8762;-60
2022/12/12 06:31:39;;;;;;;;;;;;;;;25.32;41.57;93400.63;4933973;28;7035;-60
2022/12/12 06:34:07;;;;;;;;;;;;;;;25.33;41.12;93402.88;4938108;28;7477;-60
2022/12/12 06:36:36;;;;;;;;;;;;;;;25.32;40.54;93414.38;4948357;28;7033;-60
2022/12/12 06:39:03;;;;;;;;;;;;;;;25.37;40.97;93408.03;4951164;28;7638;-60
2022/12/12 06:41:32;;;;;;;;;;;;;;;25.42;40.50;93407.22;4925310;28;7189;-60
2022/12/12 06:44:06;;;;;;;;;;;;;;;25.45;40.90;93417.16;4935837;28;9609;-60
2022/12/12 06:46:43;;;;;;;;;;;;;;;25.44;40.21;93415.69;4932727;28;7128;-60
2022/12/12 06:49:11;;;;;;;;;;;;;;;25.47;39.95;93417.34;4934347;28;7464;-60
2022/12/12 06:51:47;;;;;;;;;;;;;;;25.43;40.21;93416.94;4932057;28;7335;-60
2022/12/12 06:54:25;;;;;;;;;;;;;;;25.38;40.08;93413.00;4948071;28;9323;-60
2022/12/12 06:57:01;;;;;;;;;;;;;;;25.34;39.99;93414.59;4947421;28;7224;-61
2022/12/12 06:59:34;;;;;;;;;;;;;;;25.33;40.55;93419.38;4939686;28;7040;-60
2022/12/12 07:02:00;;;;;;;;;;;;;;;25.31;40.12;93419.19;4961281;28;7271;-60
2022/12/12 07:04:27;;;;;;;;;;;;;;;25.32;40.64;93422.66;4985802;28;11946;-60
2022/12/12 07:06:55;;;;;;;;;;;;;;;25.29;40.60;93420.97;4981656;28;9153;-60
2022/12/12 07:09:23;;;;;;;;;;;;;;;25.24;41.23;93422.56;4964613;28;7197;-60
2022/12/12 07:11:55;;;;;;;;;;;;;;;25.25;40.41;93432.28;4967057;28;8177;-60
2022/12/12 07:14:22;;;;;;;;;;;;;;;25.26;40.75;93435.78;4981174;28;9040;-60
2022/12/12 07:16:55;;;;;;;;;;;;;;;25.25;40.82;93434.31;4976412;28;7281;-60
2022/12/12 07:19:31;;;;;;;;;;;;;;;25.30;40.73;93436.94;4975808;28;7276;-60
2022/12/12 07:21:59;;;;;;;;;;;;;;;25.30;40.34;93442.47;4970598;28;7269;-60
2022/12/12 07:24:28;;;;;;;;;;;;;;;25.29;40.50;93443.72;4986933;28;9372;-60
2022/12/12 07:27:13;;;;;;;;;;;;;;;25.33;40.37;93448.91;4962411;28;8417;-61
2022/12/12 07:29:56;;;;;;;;;;;;;;;25.33;39.85;93444.16;4971862;28;7313;-61
2022/12/12 07:32:26;;;;;;;;;;;;;;;25.35;40.46;93449.13;4973046;28;7226;-61
2022/12/12 07:35:05;;;;;;;;;;;;;;;25.32;41.11;93453.66;4978653;28;7034;-60
2022/12/12 07:37:31;;;;;;;;;;;;;;;25.29;41.10;93456.75;4976668;28;9579;-60
2022/12/12 07:40:28;;;;;;;;;;;;;;;25.23;40.78;93465.09;4978737;28;7021;-61
2022/12/12 07:43:03;;;;;;;;;;;;;;;25.27;40.43;93462.06;4945743;28;8258;-61
2022/12/12 07:45:30;;;;;;;;;;;;;;;25.27;40.93;93471.03;4934413;28;9074;-61
2022/12/12 07:48:13;;;;;;;;;;;;;;;25.27;41.12;93464.81;4945362;28;7006;-61
2022/12/12 07:50:41;;;;;;;;;;;;;;;25.25;40.77;93465.31;4933428;28;7283;-60
2022/12/12 07:53:07;;;;;;;;;;;;;;;25.21;40.56;93462.16;4947015;28;9158;-61
2022/12/12 07:55:38;;;;;;;;;;;;;;;25.25;40.53;93470.09;4929023;28;7988;-60
2022/12/12 07:58:05;;;;;;;;;;;;;;;25.25;40.88;93475.59;4944154;28;9504;-61
2022/12/12 08:00:36;;;;;;;;;;;;;;;25.26;40.93;93474.31;4942673;28;8248;-61
2022/12/12 08:03:04;;;;;;;;;;;;;;;25.26;41.04;93474.31;4945777;28;8412;-60
2022/12/12 08:05:31;;;;;;;;;;;;;;;25.24;40.69;93472.09;4942319;28;7073;-61
2022/12/12 08:07:57;;;;;;;;;;;;;;;25.25;41.01;93478.34;4942946;28;7026;-61
2022/12/12 08:10:23;;;;;;;;;;;;;;;25.24;41.50;93480.38;4934242;28;8213;-61
2022/12/12 08:12:49;;;;;;;;;;;;;;;25.24;40.74;93474.84;4933028;28;7200;-61
2022/12/12 08:15:16;;;;;;;;;;;;;;;25.25;40.76;93479.06;4933943;28;7253;-61
2022/12/12 08:18:12;;;;;;;;;;;;;;;25.26;40.84;93479.81;4949206;28;8989;-61
2022/12/12 08:20:40;;;;;;;;;;;;;;;25.27;40.84;93484.78;4915931;29;7054;-61
2022/12/12 08:23:07;;;;;;;;;;;;;;;25.26;40.98;93485.31;4925656;29;7162;-61
2022/12/12 08:25:48;;;;;;;;;;;;;;;25.28;41.09;93493.78;4931202;29;8412;-61
2022/12/12 08:28:17;;;;;;;;;;;;;;;25.28;40.79;93496.53;4923468;29;9004;-61
2022/12/12 08:30:52;;;;;;;;;;;;;;;25.26;41.01;93488.81;4915950;29;7018;-61
2022/12/12 08:33:52;;;;;;;;;;;;;;;25.25;40.90;93490.09;4914600;29;8867;-61
2022/12/12 08:36:33;;;;;;;;;;;;;;;25.24;41.04;93490.63;4858610;29;7035;-61
2022/12/12 08:39:16;;;;;;;;;;;;;;;25.25;41.15;93487.34;4857106;29;9384;-60
2022/12/12 08:42:12;;;;;;;;;;;;;;;25.25;41.23;93495.59;4865320;29;7262;-61
2022/12/12 08:44:38;;;;;;;;;;;;;;;25.26;41.21;93485.31;4801781;29;8787;-61
2022/12/12 08:47:04;;;;;;;;;;;;;;;25.27;41.27;93490.28;4788664;29;7972;-61
2022/12/12 08:49:35;;;;;;;;;;;;;;;25.28;41.25;93489.03;4790169;29;6999;-61
2022/12/12 08:52:33;;;;;;;;;;;;;;;25.28;41.55;93496.53;4790927;29;7308;-61
2022/12/12 08:55:20;;;;;;;;;;;;;;;25.28;40.76;93500.03;4766049;30;7362;-61
2022/12/12 08:57:57;;;;;;;;;;;;;;;25.27;40.70;93501.31;4787209;29;9341;-60
2022/12/12 09:00:23;;;;;;;;;;;;;;;25.28;41.53;93507.56;4791341;29;7728;-61
2022/12/12 09:03:05;;;;;;;;;;;;;;;25.28;41.53;93502.06;4807528;29;7520;-61
2022/12/12 09:05:33;;;;;;;;;;;;;;;25.29;40.76;93506.28;4804238;29;7065;-61
2022/12/12 09:08:02;;;;;;;;;;;;;;;25.30;41.00;93507.75;4805324;29;7130;-61
2022/12/12 09:10:28;;;;;;;;;;;;;;;25.29;40.74;93509.78;4803449;29;8487;-61
2022/12/12 09:12:54;;;;;;;;;;;;;;;25.29;41.47;93517.31;4833367;29;7041;-61
2022/12/12 09:15:20;;;;;;;;;;;;;;;25.31;40.75;93525.78;4857763;29;7526;-61
2022/12/12 09:18:02;;;;;;;;;;;;;;;25.30;41.43;93521.53;4859742;29;9361;-61
2022/12/12 09:20:57;;;;;;;;;;;;;;;25.32;40.55;93521.72;4884370;28;7767;-61
2022/12/12 09:23:27;;;;;;;;;;;;;;;25.32;41.48;93516.22;4852697;29;7365;-61
2022/12/12 09:26:07;;;;;;;;;;;;;;;25.32;41.51;93521.72;4870813;29;7129;-61
2022/12/12 09:28:36;;;;;;;;;;;;;;;25.34;41.27;93521.94;4856674;29;7211;-61
2022/12/12 09:31:06;;;;;;;;;;;;;;;25.34;41.40;93530.94;4878524;29;7133;-61
2022/12/12 09:33:46;;;;;;;;;;;;;;;25.33;41.02;93518.47;4881503;29;6976;-61
2022/12/12 09:36:12;;;;;;;;;;;;;;;25.33;41.49;93528.75;4890289;29;7106;-61
2022/12/12 09:39:12;;;;;;;;;;;;;;;25.36;40.50;93524.91;4888664;29;9315;-61
2022/12/12 09:41:38;;;;;;;;;;;;;;;25.36;41.16;93524.91;4857425;29;7284;-61
2022/12/12 09:44:21;;;;;;;;;;;;;;;25.34;40.99;93517.19;4860832;29;7049;-61
2022/12/12 09:47:06;;;;;;;;;;;;;;;25.36;40.75;93522.16;4874454;29;7279;-60
2022/12/12 09:49:42;;;;;;;;;;;;;;;25.35;40.71;93524.19;4862796;29;7094;-60
2022/12/12 09:52:21;;;;;;;;;;;;;;;25.36;40.99;93522.91;4873384;29;7243;-61
2022/12/12 09:55:17;;;;;;;;;;;;;;;25.39;41.41;93521.09;4861061;29;7200;-61
2022/12/12 09:58:01;;;;;;;;;;;;;;;25.41;41.21;93527.56;4856160;29;7207;-61
2022/12/12 10:01:10;;;;;;;;;;;;;;;25.42;41.45;93520.81;4902881;29;7797;-61
2022/12/12 10:04:06;;;;;;;;;;;;;;;25.43;40.65;93522.31;4886897;29;7262;-61
2022/12/12 10:06:42;;;;;;;;;;;;;;;25.41;41.05;93513.81;4888848;29;9348;-60
2022/12/12 10:09:37;;;;;;;;;;;;;;;25.41;41.05;93499.28;4878015;29;8796;-61
2022/12/12 10:12:10;;;;;;;;;;;;;;;25.40;41.20;93495.78;4881540;29;7189;-60
2022/12/12 10:15:04;;;;;;;;;;;;;;;25.41;41.15;93505.53;4886121;29;7546;-61
2022/12/12 10:18:02;;;;;;;;;;;;;;;25.41;40.55;93505.53;4913878;29;9299;-60
2022/12/12 10:20:34;;;;;;;;;;;;;;;25.42;40.74;93520.09;4851721;29;7245;-60
2022/12/12 10:23:12;;;;;;;;;;;;;;;25.43;40.56;93519.53;4855297;29;8460;-60
2022/12/12 10:25:57;;;;;;;;;;;;;;;25.46;40.81;93509.50;4857824;29;7035;-60
2022/12/12 10:28:29;;;;;;;;;;;;;;;25.47;40.70;93499.94;4855246;29;7007;-60
2022/12/12 10:31:08;;;;;;;;;;;;;;;25.50;40.49;93511.91;4857276;29;7277;-60
2022/12/12 10:34:12;;;;;;;;;;;;;;;25.50;40.52;93512.66;4843769;29;7044;-60
2022/12/12 10:36:47;;;;;;;;;;;;;;;25.50;41.14;93512.66;4852384;29;6858;-60
2022/12/12 10:39:27;;;;;;;;;;;;;;;25.53;41.24;93517.13;4868531;29;7538;-60
2022/12/12 10:42:17;;;;;;;;;;;;;;;25.53;41.36;93511.59;4869499;29;7972;-60
2022/12/12 10:45:19;;;;;;;;;;;;;;;25.56;40.72;93515.28;4871327;29;7030;-60
2022/12/12 10:47:46;;;;;;;;;;;;;;;25.56;40.94;93504.28;4872991;29;7233;-60
2022/12/12 10:50:26;;;;;;;;;;;;;;;25.54;41.19;93510.31;4870880;29;7096;-60
2022/12/12 10:52:52;;;;;;;;;;;;;;;25.57;41.10;93505.78;4866774;29;7045;-60
2022/12/12 10:55:30;;;;;;;;;;;;;;;25.55;40.37;93505.56;4874338;29;7303;-60
2022/12/12 10:58:08;;;;;;;;;;;;;;;25.59;40.40;93501.22;4963338;28;6983;-60
2022/12/12 11:00:42;;;;;;;;;;;;;;;25.60;40.83;93510.94;4978829;28;7148;-60
2022/12/12 11:03:44;;;;;;;;;;;;;;;25.62;40.97;93500.13;4971117;28;7017;-60
2022/12/12 11:06:45;;;;;;;;;;;;;;;25.63;41.24;93504.38;4976032;28;7182;-60
2022/12/12 11:09:24;;;;;;;;;;;;;;;25.62;40.33;93500.13;4968197;28;8330;-60
2022/12/12 11:12:37;;;;;;;;;;;;;;;25.61;40.68;93501.44;4963018;28;9242;-60
2022/12/12 11:15:14;;;;;;;;;;;;;;;25.60;41.18;93502.69;4935818;28;7292;-60
2022/12/12 11:17:43;;;;;;;;;;;;;;;25.58;41.02;93499.72;4930072;28;7070;-60
2022/12/12 11:20:26;;;;;;;;;;;;;;;25.56;41.25;93493.25;4944701;28;7259;-60
2022/12/12 11:23:02;;;;;;;;;;;;;;;25.58;40.12;93494.22;4932726;28;7287;-60
2022/12/12 11:25:58;;;;;;;;;;;;;;;25.58;40.88;93485.94;4932805;28;7824;-60
2022/12/12 11:28:37;;;;;;;;;;;;;;;25.59;40.44;93484.69;4874545;29;10292;-60
2022/12/12 11:31:18;;;;;;;;;;;;;;;25.57;40.12;93481.72;4880739;29;7966;-60
2022/12/12 11:33:52;;;;;;;;;;;;;;;25.57;40.72;93478.97;4878009;29;9557;-60
2022/12/12 11:36:32;;;;;;;;;;;;;;;25.59;40.79;93475.69;4860593;29;9396;-60
2022/12/12 11:39:02;;;;;;;;;;;;;;;25.61;40.18;93468.38;4884983;29;7214;-60
2022/12/12 11:42:15;;;;;;;;;;;;;;;25.62;40.34;93464.34;4876343;29;10156;-60
2022/12/12 11:44:44;;;;;;;;;;;;;;;25.62;40.52;93461.59;4807235;29;7069;-60
2022/12/12 11:47:25;;;;;;;;;;;;;;;25.63;41.07;93467.84;4803142;29;7016;-61
2022/12/12 11:49:51;;;;;;;;;;;;;;;25.62;40.46;93461.59;4783237;29;8212;-60
2022/12/12 11:52:25;;;;;;;;;;;;;;;25.63;40.57;93454.81;4806528;29;8415;-61
2022/12/12 11:54:55;;;;;;;;;;;;;;;25.63;39.98;93460.31;4798946;29;8990;-60
2022/12/12 11:57:26;;;;;;;;;;;;;;;25.65;40.89;93449.50;4798905;29;7957;-60
2022/12/12 12:00:12;;;;;;;;;;;;;;;25.64;40.42;93461.81;4798941;29;7080;-61
2022/12/12 12:03:06;;;;;;;;;;;;;;;25.65;40.69;93449.50;4783670;29;9398;-61
2022/12/12 12:05:38;;;;;;;;;;;;;;;25.64;40.46;93450.06;4859324;29;9498;-61
2022/12/12 12:08:15;;;;;;;;;;;;;;;25.72;40.51;93451.63;4887099;29;9368;-60
2022/12/12 12:11:08;;;;;;;;;;;;;;;25.74;40.47;93445.56;4891472;29;7164;-60
2022/12/12 12:14:02;;;;;;;;;;;;;;;25.69;40.10;93438.16;4893030;29;9691;-60
2022/12/12 12:17:11;;;;;;;;;;;;;;;25.67;40.11;93449.72;4892724;29;7157;-60
2022/12/12 12:20:02;;;;;;;;;;;;;;;25.64;40.99;93445.28;4821244;29;7662;-60
2022/12/12 12:23:00;;;;;;;;;;;;;;;25.64;40.11;93448.03;4888017;29;7323;-60
2022/12/12 12:26:08;;;;;;;;;;;;;;;25.66;40.92;93445.50;4886400;29;7166;-60
2022/12/12 12:29:12;;;;;;;;;;;;;;;25.71;40.39;93443.91;4874314;29;7393;-60
2022/12/12 12:32:15;;;;;;;;;;;;;;;25.70;40.92;93445.91;4857048;29;7044;-60
2022/12/12 12:35:03;;;;;;;;;;;;;;;25.71;40.57;93438.38;4855723;29;6923;-61
2022/12/12 12:38:02;;;;;;;;;;;;;;;25.73;39.97;93433.81;4858382;29;8437;-60
2022/12/12 12:40:28;;;;;;;;;;;;;;;25.74;40.38;93429.78;4855194;29;7440;-61
2022/12/12 12:43:21;;;;;;;;;;;;;;;25.74;40.21;93434.56;4856519;29;7341;-60
2022/12/12 12:46:20;;;;;;;;;;;;;;;25.72;40.27;93426.84;4857206;29;7022;-61
2022/12/12 12:49:02;;;;;;;;;;;;;;;25.72;40.69;93423.31;4868512;29;7131;-60
2022/12/12 12:51:49;;;;;;;;;;;;;;;25.73;40.93;93417.28;4928620;29;7146;-60
2022/12/12 12:54:36;;;;;;;;;;;;;;;25.74;39.84;93413.25;4902733;29;7214;-60
2022/12/12 12:57:24;;;;;;;;;;;;;;;25.77;40.35;93414.97;4924859;29;7253;-60
2022/12/12 13:00:00;;;;;;;;;;;;;;;25.77;40.77;93412.22;4913848;29;7362;-60
2022/12/12 13:02:49;;;;;;;;;;;;;;;25.75;40.90;93406.47;4917669;29;7267;-60
2022/12/12 13:05:43;;;;;;;;;;;;;;;25.74;40.05;93407.75;4913794;29;7175;-60
2022/12/12 13:08:38;;;;;;;;;;;;;;;25.72;40.67;93409.56;4923556;28;7108;-60
2022/12/12 13:11:19;;;;;;;;;;;;;;;25.69;40.43;93416.13;4969293;28;7489;-60
2022/12/12 13:14:11;;;;;;;;;;;;;;;25.68;40.47;93411.91;4970672;28;8919;-60
2022/12/12 13:16:47;;;;;;;;;;;;;;;25.66;40.11;93401.44;4971623;28;7221;-60
2022/12/12 13:19:30;;;;;;;;;;;;;;;25.65;40.42;93402.69;4969186;28;7297;-61
2022/12/12 13:22:47;;;;;;;;;;;;;;;25.66;41.30;93404.19;4968103;28;7505;-60
2022/12/12 13:25:36;;;;;;;;;;;;;;;25.67;40.99;93396.66;4984161;28;7261;-60
2022/12/12 13:28:27;;;;;;;;;;;;;;;25.66;40.22;93387.66;4969137;28;8903;-60
2022/12/12 13:31:01;;;;;;;;;;;;;;;25.68;40.22;93378.84;4982549;28;7269;-60
2022/12/12 13:33:45;;;;;;;;;;;;;;;25.65;40.83;93382.66;4971687;28;7277;-60
2022/12/12 13:36:29;;;;;;;;;;;;;;;25.65;41.15;93382.66;4977118;28;7253;-60
2022/12/12 13:38:59;;;;;;;;;;;;;;;25.63;41.34;93385.97;4967711;28;9414;-60
2022/12/12 13:41:25;;;;;;;;;;;;;;;25.64;41.14;93394.97;4988371;28;7297;-61
2022/12/12 13:43:57;;;;;;;;;;;;;;;25.64;40.34;93394.97;4974281;28;7042;-60
2022/12/12 13:46:41;;;;;;;;;;;;;;;25.63;40.99;93402.50;4974947;28;7133;-60
2022/12/12 13:49:26;;;;;;;;;;;;;;;25.64;40.97;93409.50;4975013;28;7420;-60
2022/12/12 13:52:20;;;;;;;;;;;;;;;25.64;40.71;93392.22;4969935;28;7263;-60
2022/12/12 13:54:47;;;;;;;;;;;;;;;25.64;40.97;93389.47;4973741;28;6902;-60
2022/12/12 13:57:36;;;;;;;;;;;;;;;25.63;40.84;93388.72;4975506;28;9754;-60
2022/12/12 14:00:14;;;;;;;;;;;;;;;25.63;41.25;93383.22;4966204;28;7514;-60
2022/12/12 14:02:54;;;;;;;;;;;;;;;25.63;40.77;93372.19;4971600;28;7035;-60
2022/12/12 14:05:34;;;;;;;;;;;;;;;25.67;40.58;93375.34;4989715;28;7101;-60
2022/12/12 14:08:06;;;;;;;;;;;;;;;25.70;41.09;93377.06;4972327;28;7323;-60
2022/12/12 14:10:37;;;;;;;;;;;;;;;25.66;41.09;93381.41;4966918;28;8873;-60